Latest Weather Observations for Mount Magnet Airport

IDW60801

Issued at 5:33 pm WST Sunday 20 August 2017 (issued every 30 minutes, with the page automatically refreshed every 10 minutes)

About weather observations | Map of weather stations | Latest weather observations for WA | Other Formats
Station Details ID: 007600 Name: MOUNT MAGNET AERO Lat: -28.12 Lon: 117.84 Height: 407.0 m
Data from the previous 72 hours. | See also: Recent months at Mount Magnet Airport
Date/Time
WST
Temp
°C
App
Temp
°C
Dew
Point
°C
Rel
Hum
%
Delta-T
°C
Wind Press
QNH
hPa
Press
MSL
hPa
Rain since
9am
mm
Dir  Spd
km/h
Gust
km/h
Spd
kts
Gust
kts
20/05:30pm 16.9 12.5 4.6 44 5.9 SSE 17 20 9 11 1021.8 1021.2 0.0
20/05:00pm 17.3 12.8 4.3 42 6.2 SSE 17 24 9 13 1021.4 1020.9 0.0
20/04:30pm 17.7 13.2 4.3 41 6.5 SSE 17 28 9 15 1021.3 1020.8 0.0
20/04:00pm 17.5 12.7 4.5 42 6.3 S 19 28 10 15 1021.3 1020.8 0.0
20/03:30pm 17.3 12.9 4.6 43 6.2 SSE 17 24 9 13 1021.3 1020.8 0.0
20/03:00pm 17.2 12.8 4.9 44 6.0 S 17 26 9 14 1021.5 1021.0 0.0
20/02:30pm 16.4 11.6 4.8 46 5.6 SSE 19 28 10 15 1021.8 1021.2 0.0
20/02:00pm 16.3 11.5 4.7 46 5.6 S 19 28 10 15 1022.2 1021.7 0.0
20/01:30pm 15.9 11.3 5.5 50 5.1 S 19 30 10 16 1022.4 1021.9 0.0
20/01:00pm 16.2 11.3 5.2 48 5.3 SSW 20 32 11 17 1022.7 1022.2 0.0
20/12:30pm 14.9 10.0 4.9 51 4.8 S 20 33 11 18 1023.2 1022.7 0.0
20/12:00pm 14.7 10.4 5.2 53 4.6 S 17 28 9 15 1023.7 1023.2 0.0
20/11:30am 14.4 10.2 5.7 56 4.2 SSE 17 30 9 16 1024.3 1023.8 0.0
20/11:00am 13.2 8.6 5.6 60 3.6 S 19 26 10 14 1024.7 1024.2 0.0
20/10:30am 13.3 8.6 6.2 62 3.5 S 20 30 11 16 1024.8 1024.3 0.0
20/10:00am 12.4 7.9 6.0 65 3.1 S 19 28 10 15 1025.0 1024.5 0.0
20/09:30am 11.4 6.3 5.9 69 2.6 S 22 32 12 17 1025.3 1024.8 0.0
20/09:00am 11.1 5.6 6.0 71 2.4 S 24 33 13 18 1025.1 1024.6 0.0
20/08:30am 10.4 5.0 6.2 75 2.0 S 24 32 13 17 1025.1 1024.6 0.0
20/08:00am 9.7 3.4 5.9 77 1.8 SSW 28 37 15 20 1024.7 1024.2 0.0
20/07:30am 9.4 2.8 6.1 80 1.6 SSW 30 39 16 21 1024.1 1023.7 0.0
20/07:00am 9.5 3.6 6.0 79 1.6 SSW 26 35 14 19 1023.7 1023.2 0.0
20/06:30am 9.5 2.3 5.9 78 1.7 SSW 33 43 18 23 1023.2 1022.7 0.0
20/06:00am 9.4 3.7 6.5 82 1.4 SSW 26 35 14 19 1022.9 1022.4 0.0
20/05:30am 9.3 4.3 6.4 82 1.4 SSW 22 35 12 19 1022.8 1022.3 0.0
20/05:00am 8.8 3.9 7.1 89 0.8 SSW 22 32 12 17 1022.6 1022.1 0.0
20/04:30am 8.9 5.0 7.0 88 0.9 SW 17 24 9 13 1022.3 1021.8 0.0
20/04:00am 8.6 5.0 6.6 87 0.9 WSW 15 19 8 10 1022.1 1021.6 0.0
20/03:30am 8.1 3.9 5.9 86 1.0 WSW 17 24 9 13 1021.9 1021.3 0.0
20/03:00am 8.2 4.0 5.5 83 1.2 WSW 17 22 9 12 1021.9 1021.3 0.0
20/02:30am 8.5 4.6 5.3 80 1.5 W 15 17 8 9 1021.7 1021.1 0.0
20/02:00am 8.8 4.5 5.2 78 1.6 W 17 20 9 11 1021.7 1021.1 0.0
20/01:30am 8.9 5.3 4.9 76 1.8 W 13 17 7 9 1021.8 1021.2 0.0
20/01:00am 9.3 5.3 4.9 74 2.0 WSW 15 19 8 10 1021.8 1021.2 0.0
20/12:30am 9.7 5.3 4.5 70 2.4 WSW 17 20 9 11 1021.7 1021.1 0.0
20/12:00am 10.1 5.6 4.0 66 2.7 WSW 17 22 9 12 1021.7 1021.1 0.0
 
Date/Time
WST
Temp
°C
App
Temp
°C
Dew
Point
°C
Rel
Hum
%
Delta-T
°C
Wind Press
QNH
hPa
Press
MSL
hPa
Rain since
9am
mm
Dir  Spd
km/h
Gust
km/h
Spd
kts
Gust
kts
19/11:30pm 10.6 5.5 3.9 63 3.0 SW 20 26 11 14 1021.8 1021.2 0.0
19/11:00pm 11.0 6.5 4.0 62 3.2 WSW 17 24 9 13 1021.8 1021.2 0.0
19/10:30pm 11.5 6.5 3.8 59 3.5 WSW 19 26 10 14 1021.5 1021.0 0.0
19/10:00pm 11.8 6.9 4.3 60 3.5 WSW 19 24 10 13 1021.4 1020.9 0.0
19/09:30pm 12.2 8.2 4.7 60 3.5 W 15 17 8 9 1021.3 1020.8 0.0
19/09:00pm 12.2 8.6 5.1 62 3.3 W 13 17 7 9 1021.1 1020.6 0.0
19/08:30pm 12.4 9.2 5.1 61 3.4 SW 11 13 6 7 1021.1 1020.6 0.0
19/08:00pm 12.7 9.2 5.6 62 3.4 SW 13 15 7 8 1020.8 1020.3 0.0
19/07:30pm 13.1 9.2 5.5 60 3.6 SW 15 20 8 11 1020.5 1020.0 0.0
19/07:00pm 13.4 9.2 5.8 60 3.7 SSW 17 24 9 13 1020.1 1019.6 0.0
19/06:30pm 14.2 9.0 5.3 55 4.3 SW 22 32 12 17 1019.8 1019.2 0.0
19/06:00pm 14.9 10.3 3.7 47 5.2 SW 17 26 9 14 1019.2 1018.6 0.0
19/05:30pm 15.4 9.1 3.9 46 5.4 SW 26 35 14 19 1018.7 1018.2 0.0
19/05:00pm 16.5 9.9 2.2 38 6.5 WSW 26 37 14 20 1018.3 1017.8 0.0
19/04:30pm 17.0 11.3 2.6 38 6.7 WSW 22 35 12 19 1017.9 1017.4 0.0
19/04:00pm 17.0 10.0 2.2 37 6.8 WSW 28 37 15 20 1017.8 1017.3 0.0
19/03:30pm 17.4 10.4 2.2 36 7.0 WSW 28 46 15 25 1017.4 1016.8 0.0
19/03:00pm 18.4 12.2 2.3 34 7.5 W 24 32 13 17 1017.2 1016.6 0.0
19/02:30pm 18.1 12.9 3.6 38 6.9 W 20 33 11 18 1017.4 1016.8 0.0
19/02:00pm 16.8 11.1 4.8 45 5.8 W 24 39 13 21 1017.5 1016.9 0.0
19/01:30pm 16.7 10.6 4.7 45 5.8 WSW 26 35 14 19 1017.7 1017.2 0.0
19/01:00pm 16.8 10.2 4.2 43 6.0 WSW 28 37 15 20 1017.9 1017.4 0.0
19/12:30pm 16.6 10.5 4.6 45 5.8 WSW 26 33 14 18 1018.0 1017.5 0.0
19/12:00pm 16.4 10.2 4.4 45 5.7 WSW 26 37 14 20 1018.4 1017.9 0.0
19/11:30am 15.9 10.2 4.9 48 5.3 WSW 24 32 13 17 1018.6 1018.1 0.0
19/11:00am 16.1 11.0 6.0 51 5.0 W 22 33 12 18 1018.8 1018.3 0.0
19/10:30am 15.2 10.5 6.0 54 4.5 W 20 28 11 15 1019.1 1018.5 0.0
19/10:00am 14.1 9.9 7.4 64 3.4 WSW 19 26 10 14 1019.3 1018.7 0.0
19/09:30am 12.7 10.5 8.0 73 2.4 W 9 13 5 7 1019.6 1019.0 0.0
19/09:00am 12.3 10.2 8.4 77 2.0 WSW 9 11 5 6 1019.6 1019.0 0.0
19/08:30am 11.7 9.2 8.4 80 1.7 WSW 11 17 6 9 1019.4 1018.8 0.0
19/08:00am 11.4 7.4 8.4 82 1.5 W 19 24 10 13 1019.1 1018.5 0.0
19/07:30am 11.5 7.4 8.5 82 1.5 WSW 20 26 11 14 1018.5 1018.0 0.0
19/07:00am 11.8 8.6 8.5 80 1.7 WSW 15 20 8 11 1018.2 1017.7 0.0
19/06:30am 11.8 9.3 8.3 79 1.8 WSW 11 15 6 8 1017.8 1017.3 0.0
19/06:00am 12.0 7.5 8.5 79 1.8 WSW 22 32 12 17 1017.5 1016.9 0.0
19/05:30am 12.5 8.8 8.0 74 2.3 WSW 17 24 9 13 1017.3 1016.7 0.0
19/05:00am 12.9 9.2 7.8 71 2.6 WSW 17 20 9 11 1017.0 1016.4 0.0
19/04:30am 13.0 9.1 7.2 68 2.9 WSW 17 22 9 12 1016.6 1016.0 0.0
19/04:00am 12.9 9.2 6.5 65 3.1 WSW 15 19 8 10 1016.4 1015.9 0.0
19/03:30am 12.7 10.1 6.1 64 3.2 W 9 13 5 7 1016.2 1015.7 0.0
19/03:00am 13.1 9.7 6.0 62 3.4 WSW 13 17 7 9 1016.1 1015.6 0.0
19/02:30am 13.5 9.7 5.9 60 3.7 WSW 15 20 8 11 1016.1 1015.6 0.0
19/02:00am 13.8 9.2 5.4 57 4.0 WSW 19 24 10 13 1016.1 1015.6 0.0
19/01:30am 14.3 9.5 5.4 55 4.3 WSW 20 32 11 17 1016.2 1015.7 0.0
19/01:00am 15.1 10.3 5.6 53 4.6 WSW 20 26 11 14 1016.0 1015.5 0.0
19/12:30am 15.5 12.1 5.7 52 4.8 SW 13 17 7 9 1016.0 1015.5 0.0
19/12:00am 15.9 12.0 5.5 50 5.1 WSW 15 20 8 11 1015.9 1015.4 0.0
 
Date/Time
WST
Temp
°C
App
Temp
°C
Dew
Point
°C
Rel
Hum
%
Delta-T
°C
Wind Press
QNH
hPa
Press
MSL
hPa
Rain since
9am
mm
Dir  Spd
km/h
Gust
km/h
Spd
kts
Gust
kts
18/11:30pm 16.2 13.1 5.5 49 5.2 SW 11 15 6 8 1015.9 1015.4 0.0
18/11:00pm 16.7 13.2 5.3 47 5.6 SW 13 17 7 9 1016.1 1015.6 0.0
18/10:30pm 17.5 13.6 5.4 45 6.0 WSW 15 20 8 11 1016.1 1015.6 0.0
18/10:00pm 18.3 13.7 5.5 43 6.4 SW 19 24 10 13 1016.0 1015.5 0.0
18/09:30pm 19.3 15.2 6.1 42 6.7 WSW 17 22 9 12 1015.8 1015.3 0.0
18/09:00pm 20.1 16.3 5.7 39 7.3 W 15 20 8 11 1015.5 1014.9 0.0
18/08:30pm 20.6 16.8 5.8 38 7.5 WSW 15 19 8 10 1015.5 1014.9 0.0
18/08:00pm 21.2 17.4 5.6 36 7.9 W 15 20 8 11 1015.2 1014.6 0.0
18/07:30pm 21.7 17.5 5.6 35 8.2 W 17 22 9 12 1014.9 1014.3 0.0
18/07:00pm 22.3 18.4 5.3 33 8.6 W 15 20 8 11 1014.6 1014.0 0.0
18/06:30pm 22.9 19.0 5.3 32 9.0 W 15 20 8 11 1014.3 1013.7 0.0
18/06:00pm 23.8 19.0 4.7 29 9.7 WNW 19 24 10 13 1013.8 1013.3 0.0
18/05:30pm 24.4 19.0 4.7 28 10.0 NW 22 30 12 16 1013.6 1013.1 0.0
18/05:00pm 25.3 20.3 4.4 26 10.7 NW 20 32 11 17 1013.3 1012.7 0.0
18/04:30pm 25.3 19.5 4.4 26 10.7 NW 24 33 13 18 1013.2 1012.6 0.0
18/04:00pm 26.0 20.6 4.5 25 11.0 NW 22 35 12 19 1013.2 1012.6 0.0
18/03:30pm 26.0 21.0 4.5 25 11.0 NNW 20 32 11 17 1013.4 1012.8 0.0
18/03:00pm 26.4 19.8 4.2 24 11.4 NNW 28 41 15 22 1013.5 1013.0 0.0
18/02:30pm 25.7 19.9 4.2 25 11.0 NNW 24 41 13 22 1013.6 1013.1 0.0
18/02:00pm 25.9 19.7 4.4 25 11.0 NNW 26 37 14 20 1014.0 1013.4 0.0
18/01:30pm 25.0 18.7 3.6 25 10.7 NNW 26 33 14 18 1014.3 1013.7 0.0
18/01:00pm 24.8 17.6 2.9 24 10.8 N 30 41 16 22 1014.8 1014.2 0.0
18/12:30pm 24.0 16.4 2.8 25 10.4 N 32 43 17 23 1015.4 1014.8 0.0
18/12:00pm 23.8 16.0 2.6 25 10.4 N 33 43 18 23 1015.8 1015.3 0.0
18/11:30am 22.6 15.2 1.6 25 10.0 N 30 43 16 23 1016.6 1016.0 0.0
18/11:00am 21.4 14.0 1.7 27 9.3 N 30 43 16 23 1017.0 1016.4 0.0
18/10:30am 19.5 13.2 1.5 30 8.3 NNE 24 35 13 19 1017.4 1016.8 0.0
18/10:00am 18.2 11.9 1.3 32 7.7 NNE 24 35 13 19 1017.8 1017.3 0.0
18/09:30am 16.6 10.3 1.5 36 6.8 NNE 24 33 13 18 1018.1 1017.6 0.0
18/09:00am 15.0 8.7 1.5 40 6.0 NNE 24 33 13 18 1018.2 1017.7 0.0
18/08:30am 14.1 8.3 2.4 45 5.3 NE 22 30 12 16 1018.0 1017.5 0.0
18/08:00am 12.1 6.9 2.3 51 4.3 NE 19 26 10 14 1018.1 1017.6 0.0
18/07:30am 11.0 6.5 2.3 55 3.8 NE 15 20 8 11 1017.9 1017.4 0.0
18/07:00am 10.3 6.2 2.4 58 3.4 NE 13 19 7 10 1017.7 1017.2 0.0
18/06:30am 9.4 5.7 2.5 62 3.0 NE 11 15 6 8 1017.5 1016.9 0.0
18/06:00am 9.2 5.5 2.1 61 3.0 ENE 11 15 6 8 1017.4 1016.8 0.0
18/05:30am 8.4 5.1 2.6 67 2.5 ENE 9 13 5 7 1017.2 1016.6 0.0
18/05:00am 7.3 4.1 2.8 73 1.9 E 9 11 5 6 1017.1 1016.5 0.0
18/04:30am 7.4 3.8 2.7 72 2.0 E 11 13 6 7 1017.2 1016.6 0.0
18/04:00am 7.4 4.2 2.9 73 1.9 E 9 11 5 6 1017.3 1016.7 0.0
18/03:30am 7.5 4.7 3.0 73 1.9 E 7 9 4 5 1017.4 1016.8 0.0
18/03:00am 7.6 4.5 3.5 75 1.8 ESE 9 11 5 6 1017.5 1016.9 0.0
18/02:30am 7.1 4.7 4.1 81 1.3 ESE 6 9 3 5 1017.6 1017.0 0.0
18/02:00am 7.1 4.1 4.1 81 1.3 SE 9 11 5 6 1017.7 1017.2 0.0
18/01:30am 7.6 5.3 4.9 83 1.2 SE 6 7 3 4 1018.1 1017.6 0.0
18/01:00am 7.8 5.3 3.8 76 1.8 SE 6 9 3 5 1018.3 1017.8 0.0
18/12:30am 8.5 5.9 4.3 75 1.9 SE 7 9 4 5 1018.5 1018.0 0.0
18/12:00am 8.4 5.8 4.2 75 1.9 SE 7 7 4 4 1018.7 1018.2 0.0
 
Date/Time
WST
Temp
°C
App
Temp
°C
Dew
Point
°C
Rel
Hum
%
Delta-T
°C
Wind Press
QNH
hPa
Press
MSL
hPa
Rain since
9am
mm
Dir  Spd
km/h
Gust
km/h
Spd
kts
Gust
kts
17/11:30pm 9.0 6.3 3.8 70 2.3 SE 7 7 4 4 1018.8 1018.3 0.0
17/11:00pm 9.8 7.3 3.8 66 2.7 SE 6 7 3 4 1019.1 1018.5 0.0
17/10:30pm 10.7 8.3 4.2 64 3.0 SE 6 6 3 3 1019.1 1018.5 0.0
17/10:00pm 10.9 8.2 3.7 61 3.2 SE 7 9 4 5 1019.1 1018.5 0.0
17/09:30pm 11.2 8.6 4.0 61 3.3 SE 7 11 4 6 1019.1 1018.5 0.0
17/09:00pm 11.9 8.8 3.7 57 3.7 SE 9 11 5 6 1019.2 1018.6 0.0
17/08:30pm 12.6 9.9 3.6 54 4.1 SE 7 9 4 5 1018.9 1018.4 0.0
17/08:00pm 13.6 10.0 3.1 49 4.8 SE 11 15 6 8 1018.8 1018.3 0.0
17/07:30pm 14.1 11.0 3.8 50 4.8 SE 9 11 5 6 1018.7 1018.2 0.0
17/07:00pm 14.9 12.2 3.7 47 5.2 SE 7 9 4 5 1018.7 1018.2 0.0
17/06:30pm 15.8 13.0 2.9 42 6.0 SE 7 9 4 5 1018.5 1018.0 0.0
17/06:00pm 16.6 13.6 1.9 37 6.7 SE 7 9 4 5 1018.3 1017.8 0.0

Other Formats:

Comma delimited format used in spreadsheet applications
http://www.bom.gov.au/fwo/IDW60801/IDW60801.94429.axf

JavaScript Object Notation format (JSON) in row-major order
http://www.bom.gov.au/fwo/IDW60801/IDW60801.94429.json